Time;durP1;ratioP1;P1;durP2;ratioP2;P2;SDS_P1;SDS_P2;PMS_P1;PMS_P2;Temp;Humidity;BMP_temperature;BMP_pressure;BME280_temperature;BME280_humidity;BME280_pressure;Samples;Min_cycle;Max_cycle;Signal;HPM_P1;HPM_P2
2023/09/27 00:00:17;;;;;;;5.35;4.85;;;15.50;99.90;;;;;;921790;152;27357;-77
2023/09/27 00:02:43;;;;;;;4.58;4.15;;;15.40;99.90;;;;;;932943;150;27417;-76
2023/09/27 00:05:11;;;;;;;4.83;4.40;;;15.40;99.90;;;;;;932879;150;27301;-77
2023/09/27 00:07:36;;;;;;;4.40;4.00;;;15.40;99.90;;;;;;932881;150;27345;-77
2023/09/27 00:10:03;;;;;;;4.93;4.53;;;15.30;99.90;;;;;;910691;153;27417;-77
2023/09/27 00:12:29;;;;;;;5.90;5.30;;;15.30;99.90;;;;;;924159;152;27857;-77
2023/09/27 00:14:56;;;;;;;4.53;4.10;;;15.30;99.90;;;;;;924473;152;27328;-77
2023/09/27 00:17:23;;;;;;;4.12;3.72;;;15.30;99.90;;;;;;923479;152;27396;-77
2023/09/27 00:19:49;;;;;;;4.95;4.55;;;15.20;99.90;;;;;;923857;152;27363;-77
2023/09/27 00:22:16;;;;;;;4.67;4.27;;;15.20;99.90;;;;;;924749;152;27473;-77
2023/09/27 00:24:42;;;;;;;4.45;3.92;;;15.20;99.90;;;;;;924088;152;27504;-77
2023/09/27 00:27:10;;;;;;;3.85;3.55;;;15.20;99.90;;;;;;924750;152;27449;-77
2023/09/27 00:29:36;;;;;;;6.00;4.60;;;15.10;99.90;;;;;;910695;153;27353;-77
2023/09/27 00:32:02;;;;;;;4.50;4.08;;;15.10;99.90;;;;;;924351;152;27352;-77
2023/09/27 00:34:29;;;;;;;4.83;4.43;;;15.10;99.90;;;;;;923596;151;27457;-76
2023/09/27 00:36:55;;;;;;;4.67;4.28;;;15.00;99.90;;;;;;925143;152;27379;-77
2023/09/27 00:39:22;;;;;;;4.37;4.03;;;15.00;99.90;;;;;;910217;153;27348;-74
2023/09/27 00:41:48;;;;;;;4.65;4.25;;;15.00;99.90;;;;;;910847;153;27356;-76
2023/09/27 00:44:15;;;;;;;4.08;3.77;;;15.00;99.90;;;;;;924008;152;27356;-78
2023/09/27 00:46:42;;;;;;;4.87;4.47;;;15.00;99.90;;;;;;910096;153;27504;-75
2023/09/27 00:49:08;;;;;;;4.40;4.07;;;15.00;99.90;;;;;;924292;152;27349;-77
2023/09/27 00:51:35;;;;;;;4.63;4.30;;;15.00;99.90;;;;;;923773;152;27465;-79
2023/09/27 00:54:01;;;;;;;4.47;4.08;;;15.00;99.90;;;;;;924399;152;27386;-75
2023/09/27 00:56:28;;;;;;;4.60;4.20;;;14.90;99.90;;;;;;923901;152;27430;-75
2023/09/27 00:58:55;;;;;;;6.45;4.25;;;14.90;99.90;;;;;;924135;152;27474;-75
2023/09/27 01:01:21;;;;;;;4.73;4.23;;;14.90;99.90;;;;;;923306;152;27435;-77
2023/09/27 01:03:48;;;;;;;4.30;3.90;;;14.90;99.90;;;;;;924540;152;27398;-76
2023/09/27 01:06:14;;;;;;;5.40;5.00;;;14.90;99.90;;;;;;923753;152;27354;-76
2023/09/27 01:08:41;;;;;;;5.35;4.70;;;14.90;99.90;;;;;;920688;153;27442;-75
2023/09/27 01:11:08;;;;;;;4.70;4.30;;;14.90;99.90;;;;;;917343;153;27348;-75
2023/09/27 01:13:34;;;;;;;6.07;4.50;;;14.90;99.90;;;;;;922153;154;27404;-76
2023/09/27 01:16:01;;;;;;;4.77;4.40;;;14.90;99.90;;;;;;922928;154;27308;-79
2023/09/27 01:18:27;;;;;;;4.37;4.00;;;14.90;99.90;;;;;;921347;154;27835;-76
2023/09/27 01:20:54;;;;;;;3.92;3.62;;;14.80;99.90;;;;;;922006;154;27391;-78
2023/09/27 01:23:21;;;;;;;4.90;4.50;;;14.80;99.90;;;;;;921786;154;27486;-75
2023/09/27 01:25:47;;;;;;;5.58;4.05;;;14.80;99.90;;;;;;922611;154;27466;-75
2023/09/27 01:28:14;;;;;;;6.65;4.75;;;14.70;99.90;;;;;;922383;154;27452;-77
2023/09/27 01:30:40;;;;;;;4.70;4.30;;;14.70;99.90;;;;;;922833;154;27364;-76
2023/09/27 01:33:09;;;;;;;4.53;4.13;;;14.70;99.90;;;;;;920703;154;27437;-76
2023/09/27 01:35:42;;;;;;;4.95;4.55;;;14.70;99.90;;;;;;921168;154;27380;-76
2023/09/27 01:38:08;;;;;;;4.77;4.33;;;14.60;99.90;;;;;;921650;154;27394;-73
2023/09/27 01:40:41;;;;;;;4.77;4.37;;;14.60;99.90;;;;;;920707;154;27355;-76
2023/09/27 01:43:07;;;;;;;4.70;4.30;;;14.50;99.90;;;;;;919934;154;27400;-75
2023/09/27 01:45:34;;;;;;;4.47;4.07;;;14.50;99.90;;;;;;923248;154;27486;-75
2023/09/27 01:48:01;;;;;;;5.13;4.73;;;14.50;99.90;;;;;;919263;154;27496;-76
2023/09/27 01:50:27;;;;;;;4.63;3.97;;;14.40;99.90;;;;;;920906;154;27379;-76
2023/09/27 01:52:54;;;;;;;4.27;3.83;;;14.40;99.90;;;;;;922902;153;27362;-76
2023/09/27 01:55:20;;;;;;;4.40;4.03;;;14.40;99.90;;;;;;921589;155;27487;-76
2023/09/27 01:57:47;;;;;;;4.77;4.10;;;14.40;99.90;;;;;;939139;151;27360;-77
2023/09/27 02:00:14;;;;;;;4.40;4.03;;;14.30;99.90;;;;;;918155;153;27469;-76
2023/09/27 02:02:58;;;;;;;4.70;4.30;;;14.30;99.90;;;;;;921438;154;27372;-76
2023/09/27 02:05:25;;;;;;;4.53;4.23;;;14.30;99.90;;;;;;918420;152;27772;-76
2023/09/27 02:07:51;;;;;;;4.43;4.10;;;14.20;99.90;;;;;;926337;150;27527;-77
2023/09/27 02:10:18;;;;;;;5.10;4.60;;;14.20;99.90;;;;;;923793;150;27433;-76
2023/09/27 02:12:45;;;;;;;5.47;4.58;;;14.20;99.90;;;;;;939997;148;27372;-76
2023/09/27 02:15:11;;;;;;;6.57;4.67;;;14.10;99.90;;;;;;946813;149;27365;-76
2023/09/27 02:17:40;;;;;;;4.80;4.40;;;14.10;99.90;;;;;;948546;148;28285;-76
2023/09/27 02:20:07;;;;;;;5.30;4.80;;;14.10;99.90;;;;;;947687;148;27359;-77
2023/09/27 02:22:34;;;;;;;5.13;4.73;;;14.10;99.90;;;;;;929746;151;27417;-76
2023/09/27 02:25:00;;;;;;;5.03;4.63;;;14.10;99.90;;;;;;926824;152;27390;-76
2023/09/27 02:27:27;;;;;;;5.17;4.73;;;14.10;99.90;;;;;;934191;151;27347;-77
2023/09/27 02:29:53;;;;;;;5.20;4.70;;;14.10;99.90;;;;;;929446;150;27471;-76
2023/09/27 02:32:20;;;;;;;5.57;4.47;;;14.10;99.90;;;;;;925826;152;27408;-76
2023/09/27 02:34:47;;;;;;;5.37;4.87;;;14.10;99.90;;;;;;939905;149;27329;-76
2023/09/27 02:37:15;;;;;;;5.30;4.50;;;14.10;99.90;;;;;;929780;151;27406;-77
2023/09/27 02:39:40;;;;;;;5.03;4.63;;;14.10;99.90;;;;;;921186;151;27435;-76
2023/09/27 02:42:06;;;;;;;5.57;5.07;;;14.10;99.90;;;;;;931059;150;27410;-76
2023/09/27 02:44:33;;;;;;;4.93;4.53;;;14.20;99.90;;;;;;941040;150;27450;-76
2023/09/27 02:46:59;;;;;;;4.73;4.33;;;14.20;99.90;;;;;;939652;151;28439;-76
2023/09/27 02:49:26;;;;;;;5.80;5.27;;;14.20;99.90;;;;;;942732;150;27418;-76
2023/09/27 02:51:53;;;;;;;5.17;4.57;;;14.20;99.90;;;;;;941387;151;27363;-77
2023/09/27 02:54:19;;;;;;;5.20;4.70;;;14.10;99.90;;;;;;940744;150;27369;-75
2023/09/27 02:56:46;;;;;;;4.80;4.30;;;14.20;99.90;;;;;;927260;152;27344;-76
2023/09/27 02:59:12;;;;;;;6.00;4.60;;;14.20;99.90;;;;;;929754;151;27347;-77
2023/09/27 03:01:42;;;;;;;5.00;4.60;;;14.10;99.90;;;;;;946298;149;27446;-77
2023/09/27 03:04:11;;;;;;;5.13;4.40;;;14.10;99.90;;;;;;947372;149;27445;-77
2023/09/27 03:06:36;;;;;;;4.87;4.50;;;14.10;99.90;;;;;;944163;149;27369;-77
2023/09/27 03:09:03;;;;;;;4.70;4.30;;;14.10;99.90;;;;;;926524;152;27438;-76
2023/09/27 03:11:28;;;;;;;4.93;4.63;;;14.00;99.90;;;;;;944523;149;27425;-77
2023/09/27 03:13:55;;;;;;;5.07;4.67;;;14.00;99.90;;;;;;930525;151;27491;-76
2023/09/27 03:16:21;;;;;;;5.20;4.70;;;14.00;99.90;;;;;;924614;151;27342;-76
2023/09/27 03:18:48;;;;;;;6.50;4.57;;;14.00;99.90;;;;;;930220;151;28146;-76
2023/09/27 03:21:14;;;;;;;5.17;4.77;;;14.00;99.90;;;;;;930425;151;27383;-77
2023/09/27 03:23:41;;;;;;;6.63;4.67;;;14.00;99.90;;;;;;928949;151;27351;-76
2023/09/27 03:26:08;;;;;;;5.30;4.80;;;14.00;99.90;;;;;;927442;151;27387;-76
2023/09/27 03:28:34;;;;;;;4.93;4.53;;;14.00;99.90;;;;;;924802;152;27494;-76
2023/09/27 03:31:01;;;;;;;4.97;4.57;;;14.00;99.90;;;;;;925499;152;27314;-75
2023/09/27 03:33:27;;;;;;;5.40;4.90;;;14.00;99.90;;;;;;925029;152;27481;-76
2023/09/27 03:35:54;;;;;;;5.07;4.40;;;14.00;99.90;;;;;;947001;149;27787;-76
2023/09/27 03:38:20;;;;;;;5.50;5.00;;;13.90;99.90;;;;;;948552;148;27844;-76
2023/09/27 03:40:48;;;;;;;5.30;4.80;;;13.90;99.90;;;;;;930792;151;27403;-76
2023/09/27 03:43:14;;;;;;;5.10;4.70;;;13.90;99.90;;;;;;949044;148;27394;-76
2023/09/27 03:45:40;;;;;;;4.97;4.57;;;13.90;99.90;;;;;;926481;152;27414;-76
2023/09/27 03:48:07;;;;;;;5.00;4.43;;;13.90;99.90;;;;;;946543;151;27405;-76
2023/09/27 03:50:33;;;;;;;4.50;4.10;;;13.80;99.90;;;;;;929764;151;27459;-76
2023/09/27 03:53:00;;;;;;;5.07;4.57;;;13.80;99.90;;;;;;933104;151;27414;-77
2023/09/27 03:55:27;;;;;;;5.13;4.73;;;13.80;99.90;;;;;;937388;150;27344;-76
2023/09/27 03:57:53;;;;;;;5.00;4.50;;;13.80;99.90;;;;;;933450;151;27375;-77
2023/09/27 04:00:20;;;;;;;4.87;4.40;;;13.70;99.90;;;;;;936754;149;27455;-77
2023/09/27 04:02:46;;;;;;;5.27;4.87;;;13.70;99.90;;;;;;938176;149;27488;-76
2023/09/27 04:05:13;;;;;;;4.80;4.40;;;13.70;99.90;;;;;;930221;151;27398;-76
2023/09/27 04:07:40;;;;;;;4.57;4.27;;;13.70;99.90;;;;;;930203;150;27394;-76
2023/09/27 04:10:06;;;;;;;4.90;4.50;;;13.70;99.90;;;;;;939334;151;27420;-76
2023/09/27 04:12:33;;;;;;;4.67;4.27;;;13.60;99.90;;;;;;940777;151;27369;-76
2023/09/27 04:15:00;;;;;;;5.73;5.20;;;13.60;99.90;;;;;;940708;151;27395;-76
2023/09/27 04:17:26;;;;;;;5.33;4.83;;;13.60;99.90;;;;;;941832;151;27458;-76
2023/09/27 04:19:53;;;;;;;5.23;4.73;;;13.60;99.90;;;;;;940365;151;27356;-76
2023/09/27 04:22:19;;;;;;;5.10;4.63;;;13.50;99.90;;;;;;940950;151;27779;-76
2023/09/27 04:24:46;;;;;;;5.50;5.00;;;13.50;99.90;;;;;;941048;151;27385;-76
2023/09/27 04:27:12;;;;;;;6.17;5.57;;;13.50;99.90;;;;;;940219;151;27269;-77
2023/09/27 04:29:39;;;;;;;5.57;5.07;;;13.50;99.90;;;;;;940545;151;27341;-77
2023/09/27 04:32:06;;;;;;;6.93;5.67;;;13.50;99.90;;;;;;931622;151;27389;-77
2023/09/27 04:34:32;;;;;;;5.10;4.70;;;13.50;99.90;;;;;;942870;151;27356;-77
2023/09/27 04:36:59;;;;;;;5.07;4.67;;;13.50;99.90;;;;;;944560;151;27449;-76
2023/09/27 04:39:30;;;;;;;5.83;5.33;;;13.50;99.90;;;;;;941528;151;28284;-76
2023/09/27 04:41:52;;;;;;;7.77;6.10;;;13.50;99.90;;;;;;941330;151;27340;-76
2023/09/27 04:44:18;;;;;;;5.43;5.00;;;13.50;99.90;;;;;;942046;151;27305;-75
2023/09/27 04:46:45;;;;;;;5.47;4.97;;;13.50;99.90;;;;;;942617;151;27317;-76
2023/09/27 04:49:12;;;;;;;5.77;5.33;;;13.50;99.90;;;;;;933348;151;27477;-76
2023/09/27 04:51:38;;;;;;;4.97;4.57;;;13.40;99.90;;;;;;935533;150;27404;-76
2023/09/27 04:54:05;;;;;;;5.30;4.80;;;13.40;99.90;;;;;;951338;148;27348;-76
2023/09/27 04:56:31;;;;;;;11.20;5.10;;;13.40;99.90;;;;;;950930;148;27378;-76
2023/09/27 04:59:05;;;;;;;5.07;4.57;;;13.40;99.90;;;;;;950352;148;27765;-76
2023/09/27 05:01:30;;;;;;;11.20;5.50;;;13.30;99.90;;;;;;930687;151;27456;-76
2023/09/27 05:03:57;;;;;;;5.37;4.87;;;13.30;99.90;;;;;;950843;148;27292;-77
2023/09/27 05:06:23;;;;;;;6.97;5.93;;;13.30;99.90;;;;;;930610;151;27335;-76
2023/09/27 05:08:50;;;;;;;8.47;5.50;;;13.30;99.90;;;;;;951098;148;27379;-76
2023/09/27 05:11:18;;;;;;;21.13;6.60;;;13.30;99.90;;;;;;936898;150;27346;-77
2023/09/27 05:13:43;;;;;;;55.73;7.93;;;13.20;99.90;;;;;;910515;153;27290;-76
2023/09/27 05:16:10;;;;;;;44.90;8.67;;;13.30;99.90;;;;;;923597;151;27368;-75
2023/09/27 05:18:36;;;;;;;53.80;8.20;;;13.30;99.90;;;;;;923788;152;27346;-75
2023/09/27 05:21:08;;;;;;;45.10;7.40;;;13.30;99.90;;;;;;924252;152;27384;-75
2023/09/27 05:23:35;;;;;;;59.57;8.20;;;13.30;99.90;;;;;;924068;152;27414;-74
2023/09/27 05:26:02;;;;;;;46.80;8.20;;;13.30;99.90;;;;;;910877;153;27403;-74
2023/09/27 05:28:28;;;;;;;37.20;7.40;;;13.30;99.90;;;;;;923886;152;27896;-76
2023/09/27 05:30:55;;;;;;;25.20;6.70;;;13.30;99.90;;;;;;924942;152;28188;-74
2023/09/27 05:33:22;;;;;;;39.67;6.47;;;13.30;99.90;;;;;;924293;152;27328;-75
2023/09/27 05:35:50;;;;;;;19.23;5.27;;;13.40;99.90;;;;;;911247;153;27369;-75
2023/09/27 05:38:14;;;;;;;17.97;5.80;;;13.40;99.90;;;;;;923644;152;27340;-75
2023/09/27 05:40:41;;;;;;;15.53;5.50;;;13.40;99.90;;;;;;924176;152;27470;-75
2023/09/27 05:43:08;;;;;;;14.20;5.27;;;13.40;99.90;;;;;;924088;152;27435;-77
2023/09/27 05:45:34;;;;;;;11.77;4.90;;;13.50;99.90;;;;;;924690;152;27490;-74
2023/09/27 05:48:01;;;;;;;7.73;4.83;;;13.50;99.90;;;;;;924518;152;27464;-77
2023/09/27 05:50:27;;;;;;;5.05;4.55;;;13.60;99.90;;;;;;923764;152;27396;-78
2023/09/27 05:52:54;;;;;;;6.75;4.50;;;13.60;99.90;;;;;;924758;152;27528;-74
2023/09/27 05:55:21;;;;;;;5.33;4.92;;;13.70;99.90;;;;;;924604;152;27442;-74
2023/09/27 05:57:49;;;;;;;5.53;5.12;;;13.80;99.90;;;;;;923996;152;27554;-75
2023/09/27 06:00:26;;;;;;;5.30;4.85;;;14.00;99.90;;;;;;923899;152;27363;-74
2023/09/27 06:02:40;;;;;;;5.95;5.45;;;14.20;99.90;;;;;;919682;152;27446;-74
2023/09/27 06:05:07;;;;;;;6.67;5.53;;;14.50;99.90;;;;;;926104;152;27441;-75
2023/09/27 06:07:33;;;;;;;5.58;5.08;;;14.80;99.90;;;;;;924746;152;27340;-74
2023/09/27 06:10:00;;;;;;;5.70;5.03;;;15.20;99.90;;;;;;917326;152;27399;-76
2023/09/27 06:12:27;;;;;;;6.03;5.53;;;15.60;99.90;;;;;;932973;150;27387;-78
2023/09/27 06:14:53;;;;;;;5.30;4.80;;;16.10;99.90;;;;;;932957;150;27385;-75
2023/09/27 06:17:20;;;;;;;5.20;4.80;;;16.60;99.90;;;;;;933810;150;27339;-75
2023/09/27 06:19:48;;;;;;;5.65;5.15;;;17.20;99.90;;;;;;910740;153;27382;-76
2023/09/27 06:22:13;;;;;;;4.80;4.40;;;17.70;99.90;;;;;;924574;152;27370;-77
2023/09/27 06:24:40;;;;;;;4.90;4.40;;;18.30;99.90;;;;;;925075;152;27293;-75
2023/09/27 06:27:06;;;;;;;4.58;4.25;;;18.90;99.90;;;;;;925019;152;27363;-78
2023/09/27 06:29:33;;;;;;;4.17;3.87;;;19.40;99.90;;;;;;924324;152;27453;-79
2023/09/27 06:31:59;;;;;;;4.53;4.03;;;20.00;99.90;;;;;;923945;154;27332;-79
2023/09/27 06:34:28;;;;;;;4.22;3.83;;;20.60;99.90;;;;;;923556;152;27314;-79
2023/09/27 06:36:56;;;;;;;3.98;3.67;;;21.10;99.90;;;;;;922798;152;27489;-78
2023/09/27 06:39:23;;;;;;;3.70;3.37;;;21.70;99.90;;;;;;923946;152;27361;-79
2023/09/27 06:41:49;;;;;;;4.08;3.60;;;22.30;99.90;;;;;;923512;152;28254;-78
2023/09/27 06:44:15;;;;;;;5.65;3.40;;;22.80;99.90;;;;;;923955;152;27345;-78
2023/09/27 06:46:41;;;;;;;3.50;3.20;;;23.40;99.90;;;;;;923963;152;28127;-78
2023/09/27 06:49:08;;;;;;;3.52;3.25;;;23.90;99.90;;;;;;923702;152;27399;-79
2023/09/27 06:51:35;;;;;;;3.35;3.12;;;24.50;98.30;;;;;;925093;151;27349;-77
2023/09/27 06:54:02;;;;;;;3.40;3.20;;;25.00;95.70;;;;;;927136;151;27501;-79
2023/09/27 06:56:28;;;;;;;3.15;2.95;;;25.50;93.30;;;;;;926984;151;27377;-78
2023/09/27 06:58:56;;;;;;;3.80;3.50;;;26.10;90.80;;;;;;927111;151;27352;-79
2023/09/27 07:01:22;;;;;;;3.30;3.10;;;26.50;88.30;;;;;;927556;151;27341;-78
2023/09/27 07:03:48;;;;;;;3.72;3.33;;;27.00;86.00;;;;;;927543;151;27360;-78
2023/09/27 07:06:15;;;;;;;3.30;3.10;;;27.50;82.90;;;;;;927472;151;27391;-77
2023/09/27 07:08:43;;;;;;;6.10;3.50;;;28.00;80.60;;;;;;926626;151;27376;-79
2023/09/27 07:11:08;;;;;;;3.33;3.02;;;28.40;77.20;;;;;;926958;151;27444;-79
2023/09/27 07:13:34;;;;;;;4.62;4.17;;;28.90;75.00;;;;;;938569;152;27473;-79
2023/09/27 07:16:05;;;;;;;3.42;3.20;;;29.20;73.10;;;;;;931292;151;27398;-78
2023/09/27 07:18:30;;;;;;;5.05;3.72;;;29.50;71.00;;;;;;918097;154;27357;-79
2023/09/27 07:20:56;;;;;;;5.15;3.90;;;29.80;69.60;;;;;;924914;153;27390;-78
2023/09/27 07:23:23;;;;;;;4.65;3.72;;;30.00;68.30;;;;;;917659;156;27357;-78
2023/09/27 07:25:50;;;;;;;3.87;3.58;;;30.20;66.90;;;;;;921999;154;26390;-78
2023/09/27 07:28:16;;;;;;;4.00;3.60;;;30.40;65.70;;;;;;920714;154;26220;-78
2023/09/27 07:30:43;;;;;;;8.03;3.75;;;30.60;65.30;;;;;;919619;151;27426;-77
2023/09/27 07:33:11;;;;;;;4.33;3.92;;;30.80;64.20;;;;;;922939;153;27365;-79
2023/09/27 07:35:41;;;;;;;7.35;4.03;;;31.00;63.50;;;;;;931295;151;27342;-79
2023/09/27 07:38:03;;;;;;;4.95;3.55;;;31.10;62.80;;;;;;921316;154;26266;-77
2023/09/27 07:40:30;;;;;;;4.17;3.77;;;31.20;62.00;;;;;;915740;153;27453;-77
2023/09/27 07:42:56;;;;;;;4.42;3.72;;;31.40;61.60;;;;;;915562;154;27380;-77
2023/09/27 07:45:23;;;;;;;4.53;3.52;;;31.50;61.50;;;;;;917978;152;27399;-77
2023/09/27 07:47:50;;;;;;;6.22;3.27;;;31.80;61.10;;;;;;917071;153;28596;-77
2023/09/27 07:50:15;;;;;;;3.55;3.25;;;32.00;60.80;;;;;;938431;150;27334;-77
2023/09/27 07:52:42;;;;;;;3.08;2.87;;;32.30;60.50;;;;;;918000;153;27407;-77
2023/09/27 07:55:10;;;;;;;3.60;3.30;;;32.70;60.40;;;;;;919989;154;27449;-77
2023/09/27 07:57:36;;;;;;;3.30;3.00;;;33.00;60.00;;;;;;921358;154;27698;-77
2023/09/27 08:00:08;;;;;;;3.47;3.17;;;33.40;59.60;;;;;;923000;154;27835;-78
2023/09/27 08:02:29;;;;;;;3.83;3.02;;;33.80;58.90;;;;;;920379;154;27370;-78
2023/09/27 08:04:55;;;;;;;3.65;2.80;;;34.10;57.80;;;;;;921158;154;26210;-78
2023/09/27 08:07:22;;;;;;;2.98;2.72;;;34.50;57.00;;;;;;920232;154;26372;-78
2023/09/27 08:09:48;;;;;;;4.70;3.02;;;34.70;56.50;;;;;;917902;153;26302;-78
2023/09/27 08:12:15;;;;;;;3.92;2.92;;;34.90;56.10;;;;;;919869;152;26322;-78
2023/09/27 08:14:42;;;;;;;2.77;2.58;;;35.10;55.60;;;;;;916018;152;26810;-78
2023/09/27 08:17:08;;;;;;;3.00;2.80;;;35.40;55.40;;;;;;921279;152;26262;-78
2023/09/27 08:19:35;;;;;;;3.10;2.47;;;35.60;55.70;;;;;;900901;155;27394;-78
2023/09/27 08:22:01;;;;;;;3.12;2.80;;;35.90;55.00;;;;;;902125;155;26435;-78
2023/09/27 08:24:28;;;;;;;2.98;2.70;;;36.20;54.50;;;;;;902068;155;26386;-78
2023/09/27 08:26:54;;;;;;;2.83;2.50;;;36.60;54.00;;;;;;921979;152;26249;-78
2023/09/27 08:29:21;;;;;;;3.35;2.67;;;36.90;53.20;;;;;;905999;155;26261;-78
2023/09/27 08:31:48;;;;;;;3.05;2.77;;;37.20;52.40;;;;;;918113;153;26406;-78
2023/09/27 08:34:14;;;;;;;3.55;2.72;;;37.40;51.90;;;;;;900896;155;26440;-78
2023/09/27 08:36:41;;;;;;;2.60;2.40;;;37.60;51.50;;;;;;916691;153;26398;-78
2023/09/27 08:39:09;;;;;;;2.62;2.42;;;37.70;51.20;;;;;;919269;152;26307;-78
2023/09/27 08:41:34;;;;;;;3.45;2.77;;;38.00;51.10;;;;;;902201;155;27373;-78
2023/09/27 08:44:01;;;;;;;2.62;2.42;;;38.20;50.60;;;;;;902267;155;26308;-78
2023/09/27 08:46:27;;;;;;;2.60;2.42;;;38.50;50.20;;;;;;901674;155;26363;-78
2023/09/27 08:48:56;;;;;;;3.67;2.27;;;38.80;49.60;;;;;;917419;153;26269;-78
2023/09/27 08:51:20;;;;;;;2.60;2.22;;;39.10;49.10;;;;;;911371;154;26281;-78
2023/09/27 08:53:47;;;;;;;2.77;2.58;;;39.30;48.70;;;;;;916632;152;26252;-79
2023/09/27 08:56:16;;;;;;;2.70;2.50;;;39.50;47.80;;;;;;917168;152;26253;-78
2023/09/27 08:58:40;;;;;;;2.17;2.08;;;39.60;46.90;;;;;;916691;153;26286;-78
2023/09/27 09:01:09;;;;;;;1.95;1.82;;;39.60;46.50;;;;;;901553;155;26439;-78
2023/09/27 09:03:33;;;;;;;4.00;2.42;;;39.60;46.30;;;;;;916129;152;26388;-78
2023/09/27 09:06:00;;;;;;;3.02;2.10;;;39.50;45.80;;;;;;910489;154;26279;-78
2023/09/27 09:08:26;;;;;;;2.50;2.30;;;39.50;45.80;;;;;;910676;154;28098;-78
2023/09/27 09:10:53;;;;;;;2.50;2.30;;;39.40;45.70;;;;;;911477;154;26334;-78
2023/09/27 09:13:22;;;;;;;2.52;2.33;;;39.40;45.70;;;;;;917954;152;26395;-78
2023/09/27 09:15:48;;;;;;;2.22;2.10;;;39.50;45.50;;;;;;923707;152;26351;-78
2023/09/27 09:18:14;;;;;;;2.60;2.40;;;39.50;45.30;;;;;;911116;153;26245;-78
2023/09/27 09:20:51;;;;;;;3.10;2.90;;;39.50;45.30;;;;;;921940;152;26347;-78
2023/09/27 09:23:36;;;;;;;2.35;2.17;;;39.50;44.80;;;;;;924069;152;26231;-78
2023/09/27 09:26:09;;;;;;;2.62;2.05;;;39.50;44.80;;;;;;925058;152;26305;-78
2023/09/27 09:28:36;;;;;;;2.65;2.45;;;39.50;44.60;;;;;;922335;152;26314;-78
2023/09/27 09:31:01;;;;;;;3.27;2.20;;;39.50;44.50;;;;;;923966;152;26283;-78
2023/09/27 09:33:36;;;;;;;2.22;2.12;;;39.50;44.30;;;;;;924734;152;26415;-78
2023/09/27 09:35:57;;;;;;;2.60;2.27;;;39.40;44.10;;;;;;924489;152;26420;-78
2023/09/27 09:38:28;;;;;;;2.90;2.30;;;39.30;43.80;;;;;;911272;153;26276;-78
2023/09/27 09:40:53;;;;;;;2.92;2.72;;;39.10;43.80;;;;;;925675;150;26310;-78
2023/09/27 09:43:29;;;;;;;2.55;2.35;;;38.90;43.60;;;;;;918433;152;26289;-78
2023/09/27 09:45:55;;;;;;;3.25;2.40;;;38.60;43.30;;;;;;910016;151;26294;-78
2023/09/27 09:48:23;;;;;;;2.60;2.40;;;38.30;43.30;;;;;;916969;152;26331;-78
2023/09/27 09:50:49;;;;;;;2.47;2.30;;;38.00;43.40;;;;;;924380;150;26306;-78
2023/09/27 09:53:15;;;;;;;3.20;3.00;;;37.70;43.60;;;;;;900991;152;26401;-78
2023/09/27 09:55:42;;;;;;;5.00;2.90;;;37.40;43.50;;;;;;909916;153;26778;-78
2023/09/27 09:58:17;;;;;;;2.60;2.40;;;37.10;43.50;;;;;;910065;153;26350;-81
2023/09/27 10:00:49;;;;;;;2.67;2.47;;;36.80;43.70;;;;;;925192;150;27344;-81
2023/09/27 10:03:14;;;;;;;2.85;2.65;;;36.40;43.80;;;;;;917459;152;26379;-80
2023/09/27 10:05:37;;;;;;;2.80;2.58;;;36.10;43.90;;;;;;925349;150;27439;-81
2023/09/27 10:08:04;;;;;;;3.47;2.27;;;35.90;43.80;;;;;;924625;149;27479;-80
2023/09/27 10:10:30;;;;;;;2.60;2.40;;;35.60;43.80;;;;;;921018;152;27477;-78
2023/09/27 10:12:57;;;;;;;3.22;2.70;;;35.20;44.00;;;;;;917934;151;27385;-80
2023/09/27 10:15:23;;;;;;;2.80;2.60;;;34.90;44.10;;;;;;910883;153;27484;-78
2023/09/27 10:17:50;;;;;;;2.85;2.65;;;34.50;44.00;;;;;;924280;152;27396;-76
2023/09/27 10:20:22;;;;;;;3.12;2.92;;;34.10;44.10;;;;;;924491;152;27377;-82
2023/09/27 10:22:43;;;;;;;2.65;2.45;;;33.80;44.40;;;;;;923264;152;27352;-81
2023/09/27 10:25:28;;;;;;;3.17;2.75;;;33.40;44.80;;;;;;923561;152;27409;-82
2023/09/27 10:28:04;;;;;;;3.58;2.55;;;33.00;45.40;;;;;;924443;152;27310;-82
2023/09/27 10:30:27;;;;;;;2.77;2.58;;;32.70;45.80;;;;;;923486;152;27415;-81
2023/09/27 10:33:15;;;;;;;2.83;2.62;;;32.40;46.20;;;;;;924366;152;27381;-81
2023/09/27 10:35:47;;;;;;;2.80;2.60;;;32.20;46.10;;;;;;923370;152;27458;-82
2023/09/27 10:38:15;;;;;;;2.77;2.50;;;32.00;47.00;;;;;;919215;152;27309;-81
2023/09/27 10:40:42;;;;;;;2.92;2.72;;;31.80;47.10;;;;;;922866;152;27349;-79
2023/09/27 10:43:07;;;;;;;2.95;2.75;;;31.70;47.30;;;;;;923021;152;27473;-78
2023/09/27 10:45:34;;;;;;;3.85;2.72;;;31.60;47.60;;;;;;923622;152;27435;-78
2023/09/27 10:48:19;;;;;;;3.27;2.98;;;31.50;47.90;;;;;;923978;152;27373;-76
2023/09/27 10:50:52;;;;;;;2.62;2.45;;;31.30;48.00;;;;;;923308;152;27883;-81
2023/09/27 10:53:18;;;;;;;3.02;2.83;;;31.30;48.00;;;;;;923911;152;27411;-82
2023/09/27 10:55:44;;;;;;;3.00;2.70;;;31.10;48.00;;;;;;924140;152;27395;-82
2023/09/27 10:58:19;;;;;;;2.95;2.62;;;31.00;48.50;;;;;;917085;152;27470;-80
2023/09/27 11:00:49;;;;;;;3.20;2.90;;;30.90;48.80;;;;;;916290;152;27508;-81
2023/09/27 11:03:16;;;;;;;4.22;2.52;;;30.80;48.90;;;;;;903672;153;27382;-81
2023/09/27 11:05:42;;;;;;;3.20;2.98;;;30.80;49.10;;;;;;911226;153;27424;-81
2023/09/27 11:08:09;;;;;;;2.87;2.67;;;30.80;49.00;;;;;;910941;153;27440;-77
2023/09/27 11:10:36;;;;;;;3.33;2.67;;;30.70;49.00;;;;;;910177;153;27462;-77
2023/09/27 11:13:05;;;;;;;4.20;2.80;;;30.60;49.10;;;;;;924213;154;27396;-77
2023/09/27 11:15:31;;;;;;;3.00;2.80;;;30.50;49.10;;;;;;924083;152;27526;-77
2023/09/27 11:17:58;;;;;;;3.10;2.83;;;30.40;49.30;;;;;;924457;152;27360;-77
2023/09/27 11:20:25;;;;;;;3.37;2.85;;;30.40;49.60;;;;;;924515;152;26298;-77
2023/09/27 11:22:58;;;;;;;4.42;3.00;;;30.20;49.70;;;;;;909801;153;27446;-77
2023/09/27 11:25:30;;;;;;;3.42;3.22;;;30.20;49.80;;;;;;909797;153;27437;-77
2023/09/27 11:27:56;;;;;;;2.85;2.65;;;30.20;49.80;;;;;;925087;152;27338;-77
2023/09/27 11:30:26;;;;;;;2.92;2.65;;;30.10;50.00;;;;;;924916;152;27420;-77
2023/09/27 11:32:52;;;;;;;3.08;2.77;;;30.00;50.20;;;;;;924241;152;27514;-77
2023/09/27 11:35:20;;;;;;;4.10;2.77;;;30.00;50.30;;;;;;919454;152;27448;-77
2023/09/27 11:37:46;;;;;;;3.10;2.90;;;30.00;50.30;;;;;;932810;150;27782;-77
2023/09/27 11:40:13;;;;;;;3.17;2.55;;;29.90;50.20;;;;;;933444;150;27439;-77
2023/09/27 11:42:39;;;;;;;4.65;2.80;;;29.90;50.30;;;;;;931976;149;27388;-77
2023/09/27 11:45:07;;;;;;;2.80;2.60;;;29.80;50.00;;;;;;918212;152;27313;-77
2023/09/27 11:47:32;;;;;;;5.10;2.65;;;29.80;50.00;;;;;;907409;152;27504;-77
2023/09/27 11:49:59;;;;;;;3.25;2.55;;;29.70;49.90;;;;;;910839;152;27369;-77
2023/09/27 11:52:25;;;;;;;2.50;2.30;;;29.60;49.90;;;;;;915690;152;27334;-77
2023/09/27 11:54:53;;;;;;;2.30;2.20;;;29.40;50.00;;;;;;909515;152;28212;-77
2023/09/27 11:57:19;;;;;;;2.72;2.52;;;29.30;50.10;;;;;;933940;150;27320;-77
2023/09/27 11:59:45;;;;;;;2.45;2.12;;;29.10;50.30;;;;;;909599;153;27487;-77
2023/09/27 12:02:13;;;;;;;2.80;2.60;;;29.00;50.00;;;;;;924215;152;27375;-77
2023/09/27 12:04:38;;;;;;;2.17;2.08;;;28.90;50.20;;;;;;923703;152;27521;-77
2023/09/27 12:07:05;;;;;;;7.62;2.52;;;28.80;50.50;;;;;;922953;152;27473;-77
2023/09/27 12:09:31;;;;;;;2.60;2.40;;;28.70;50.60;;;;;;923496;152;27417;-77
2023/09/27 12:11:58;;;;;;;2.58;2.22;;;28.60;50.60;;;;;;925081;150;27356;-77
2023/09/27 12:14:24;;;;;;;3.60;2.50;;;28.50;50.70;;;;;;917923;150;27354;-77
2023/09/27 12:16:51;;;;;;;3.37;2.52;;;28.40;51.00;;;;;;949350;148;27454;-77
2023/09/27 12:19:18;;;;;;;2.10;2.00;;;28.30;51.00;;;;;;939162;150;27286;-77
2023/09/27 12:21:44;;;;;;;2.92;2.55;;;28.30;51.00;;;;;;950817;148;27329;-77
2023/09/27 12:24:11;;;;;;;2.60;2.40;;;28.20;51.20;;;;;;950509;148;27331;-77
2023/09/27 12:26:37;;;;;;;2.52;2.33;;;28.20;51.10;;;;;;950247;148;27422;-77
2023/09/27 12:29:04;;;;;;;4.22;2.45;;;28.20;51.10;;;;;;949269;148;27766;-77
2023/09/27 12:31:31;;;;;;;4.17;2.22;;;28.20;51.20;;;;;;950028;148;27349;-77
2023/09/27 12:33:57;;;;;;;2.25;2.05;;;28.20;51.90;;;;;;948654;148;27425;-77
2023/09/27 12:36:24;;;;;;;3.40;2.40;;;28.20;51.20;;;;;;943117;148;27286;-77
2023/09/27 12:38:50;;;;;;;2.27;2.17;;;28.20;51.00;;;;;;931885;151;27466;-77
2023/09/27 12:41:17;;;;;;;2.20;2.10;;;28.20;50.90;;;;;;935034;150;27362;-77
2023/09/27 12:43:44;;;;;;;2.20;2.10;;;28.20;50.90;;;;;;932405;150;27510;-77